Aérodrome :
LOGIN :

S'inscrire | Disclaimer

   EN    FR    IT 

 










Légende :    VFR   VFR Marginal   IFR   IFR Intensif   IFR Très Intensif
Visi : 
Plafond : 
>= 8 km
>= 3000ft
5 à 8 km
1000 à 3000 ft
1500m à 5 km
500 à 1000 ft
800 à 1500m
200 à 500 ft
< 800m
< 200 ft
Symboles :   Orages  Brouillard  Fortes neiges  Fortes précipitations  Vent > 20 kt
SIGMETs :   Divers  Orages  Givrage  Turbulence  Onde Orograph.  Cendres Volcan.







- Altitude de l'aérodrome : 228 ft
- Code IATA : OPO


LPPR - Porto Fr. Sa Carneiro

DERNIER METAR :
  • 181430Z 19020G31KT 6000 -RA SCT005 BKN012 BKN024 17/16 Q1012

METARs EXPIRÉS :
  • 181400Z 20020G32KT 3000 -RA BR BKN004 BKN020 17/16 Q1012
  • 181330Z 20024KT 2000 -RA BR BKN005 BKN030 17/16 Q1012
  • 181300Z 19019KT 9999 FEW008 SCT025 BKN040 18/16 Q1011
  • 181230Z 20019KT 8000 -RA FEW012 SCT025 BKN040 18/16 Q1011
  • 181200Z 19018KT 9999 SCT020 19/16 Q1011

TAF AMD TAF LPPR
Valide du 18 à 14h jusqu'au 19 à 12h UTC


181410Z 1814/1912 19018KT 8000 SCT005 BKN010
TEMPO 1814/1908 2000 -RADZ BR SCT002 BKN004
TEMPO 1814/1816 19020G32KT
BECMG 1816/1818 21010KT
PROB30
TEMPO 1822/1908 1200 DZ PRFG BKN001
BECMG 1908/1911 25008KT 9999 SCT008 BKN015
Pas de NOTAMs connus pour ce terrain.



MET'MAP, la Météo Aéronautique d'un coup d'oeil ! - Copyright ORBIFLY Décembre 2007 - Disclaimer

ORBIFLY MET'MAP TEAM :

Programmation & Développement : Alexandra Zaïnal
Conception & Développement : Baudouin d'Aumeries
Co-Programmation & Développement : Marc-Olivier Méhu
Soutien technique & logistique : Manuel Goepfert

Contact : metmap@orbifly.com




SOURCES & CREDITS :

   NOAA